createdAt,value
2022-10-18T00:00:59.708Z,101930.38
2022-10-18T00:04:03.008Z,101930.03
2022-10-18T00:07:06.057Z,101930.62
2022-10-18T00:10:09.762Z,101918.37
2022-10-18T00:13:12.364Z,101908.56
2022-10-18T00:16:25.368Z,101918.00
2022-10-18T00:19:29.318Z,101911.75
2022-10-18T00:22:35.028Z,101906.34
2022-10-18T00:25:37.630Z,101905.22
2022-10-18T00:28:41.476Z,101884.06
2022-10-18T00:31:44.476Z,101902.53
2022-10-18T00:34:47.408Z,101899.38
2022-10-18T00:37:50.044Z,101894.34
2022-10-18T00:40:52.928Z,101890.03
2022-10-18T00:43:55.504Z,101897.19
2022-10-18T00:47:06.539Z,101898.50
2022-10-18T00:50:10.398Z,101896.38
2022-10-18T00:53:17.856Z,101885.34
2022-10-18T00:56:20.815Z,101890.56
2022-10-18T00:59:24.378Z,101890.19
2022-10-18T01:02:27.363Z,101891.41
2022-10-18T01:05:30.348Z,101872.25
2022-10-18T01:09:11.484Z,101891.59
2022-10-18T01:12:27.911Z,101880.41
2022-10-18T01:15:48.491Z,101877.97
2022-10-18T01:19:29.008Z,101881.50
2022-10-18T01:22:49.883Z,101874.19
2022-10-18T01:26:21.471Z,101866.38
2022-10-18T01:30:03.107Z,101869.19
2022-10-18T01:33:51.136Z,101872.59
2022-10-18T01:36:57.077Z,101863.31
2022-10-18T01:40:03.801Z,101860.13
2022-10-18T01:43:10.206Z,101856.47
2022-10-18T01:46:18.693Z,101849.38
2022-10-18T01:49:21.504Z,101844.63
2022-10-18T01:52:24.298Z,101841.75
2022-10-18T01:55:31.764Z,101838.50
2022-10-18T01:58:46.992Z,101841.13
2022-10-18T02:02:04.175Z,101838.94
2022-10-18T02:05:26.857Z,101837.31
2022-10-18T02:08:42.806Z,101832.06
2022-10-18T02:11:48.227Z,101817.97
2022-10-18T02:14:52.697Z,101815.53
2022-10-18T02:17:57.026Z,101818.75
2022-10-18T02:21:03.017Z,101817.63
2022-10-18T02:24:08.080Z,101821.59
2022-10-18T02:27:11.209Z,101813.47
2022-10-18T02:30:15.523Z,101825.66
2022-10-18T02:33:38.317Z,101825.84
2022-10-18T02:36:46.598Z,101833.34
2022-10-18T02:39:51.529Z,101831.75
2022-10-18T02:42:56.909Z,101818.25
2022-10-18T02:45:59.851Z,101821.28
2022-10-18T02:49:02.761Z,101820.88
2022-10-18T02:52:05.493Z,101819.78
2022-10-18T02:55:10.571Z,101820.69
2022-10-18T02:58:14.733Z,101820.75
2022-10-18T03:01:17.877Z,101804.88
2022-10-18T03:04:20.727Z,101821.19
2022-10-18T03:07:23.763Z,101823.41
2022-10-18T03:10:28.661Z,101820.88
2022-10-18T03:13:31.593Z,101819.19
2022-10-18T03:16:34.309Z,101815.16
2022-10-18T03:19:38.749Z,101820.09
2022-10-18T03:22:41.331Z,101825.16
2022-10-18T03:25:46.399Z,101830.56
2022-10-18T03:28:49.261Z,101815.00
2022-10-18T03:31:52.210Z,101824.56
2022-10-18T03:34:55.071Z,101828.50
2022-10-18T03:37:57.970Z,101833.94
2022-10-18T03:41:00.862Z,101835.09
2022-10-18T03:44:04.137Z,101840.81
2022-10-18T03:47:06.792Z,101844.34
2022-10-18T03:50:09.792Z,101848.38
2022-10-18T03:53:12.408Z,101847.78
2022-10-18T03:56:15.264Z,101839.12
2022-10-18T03:59:17.947Z,101848.69
2022-10-18T04:02:20.980Z,101834.63
2022-10-18T04:05:24.392Z,101846.06
2022-10-18T04:08:27.182Z,101838.66
2022-10-18T04:11:30.105Z,101839.03
2022-10-18T04:14:32.642Z,101844.56
2022-10-18T04:17:35.642Z,101845.03
2022-10-18T04:20:38.280Z,101836.66
2022-10-18T04:23:41.247Z,101836.97
2022-10-18T04:26:44.028Z,101842.69
2022-10-18T04:29:46.951Z,101840.44
2022-10-18T04:32:49.515Z,101822.88
2022-10-18T04:35:53.324Z,101837.63
2022-10-18T04:38:55.994Z,101839.81
2022-10-18T04:41:58.849Z,101839.09
2022-10-18T04:45:01.428Z,101829.72
2022-10-18T04:48:05.149Z,101826.72
2022-10-18T04:51:08.839Z,101817.38
2022-10-18T04:54:11.723Z,101814.88
2022-10-18T04:57:14.343Z,101817.09
2022-10-18T05:00:20.530Z,101811.34
2022-10-18T05:03:23.133Z,101808.44
2022-10-18T05:06:26.232Z,101808.44
2022-10-18T05:09:28.927Z,101805.69
2022-10-18T05:12:32.631Z,101804.06
2022-10-18T05:15:35.906Z,101811.59
2022-10-18T05:18:38.880Z,101801.34
2022-10-18T05:21:41.558Z,101795.31
2022-10-18T05:24:47.606Z,101797.06
2022-10-18T05:27:50.238Z,101793.50
2022-10-18T05:30:56.357Z,101801.78
2022-10-18T05:33:59.354Z,101795.06
2022-10-18T05:37:02.282Z,101796.19
2022-10-18T05:40:05.409Z,101782.69
2022-10-18T05:43:08.466Z,101793.28
2022-10-18T05:46:15.492Z,101793.19
2022-10-18T05:49:18.831Z,101794.12
2022-10-18T05:52:21.798Z,101789.53
2022-10-18T05:55:25.062Z,101793.88
2022-10-18T05:58:27.787Z,101787.34
2022-10-18T06:01:31.106Z,101797.25
2022-10-18T06:04:34.846Z,101793.91
2022-10-18T06:07:37.340Z,101800.44
2022-10-18T06:10:40.635Z,101799.72
2022-10-18T06:13:45.159Z,101809.16
2022-10-18T06:16:48.036Z,101809.31
2022-10-18T06:19:50.614Z,101806.06
2022-10-18T06:22:53.733Z,101810.03
2022-10-18T06:26:05.157Z,101806.75
2022-10-18T06:29:08.239Z,101813.37
2022-10-18T06:32:10.891Z,101816.84
2022-10-18T06:35:13.851Z,101812.59
2022-10-18T06:38:16.351Z,101818.34
2022-10-18T06:41:19.727Z,101821.19
2022-10-18T06:44:22.398Z,101815.31
2022-10-18T06:47:25.483Z,101822.63
2022-10-18T06:50:28.067Z,101828.94
2022-10-18T06:53:33.587Z,101818.66
2022-10-18T06:56:36.851Z,101819.44
2022-10-18T06:59:39.884Z,101828.09
2022-10-18T07:02:42.687Z,101825.44
2022-10-18T07:05:45.811Z,101833.78
2022-10-18T07:08:49.699Z,101822.28
2022-10-18T07:11:53.263Z,101825.00
2022-10-18T07:14:56.092Z,101828.31
2022-10-18T07:17:59.128Z,101818.34
2022-10-18T07:21:06.476Z,101815.56
2022-10-18T07:24:09.328Z,101817.97
2022-10-18T07:27:11.895Z,101811.59
2022-10-18T07:30:15.381Z,101813.03
2022-10-18T07:33:18.006Z,101797.28
2022-10-18T07:36:22.221Z,101817.94
2022-10-18T07:39:24.945Z,101804.06
2022-10-18T07:42:28.039Z,101811.59
2022-10-18T07:45:32.107Z,101814.47
2022-10-18T07:48:35.208Z,101810.00
2022-10-18T07:51:39.273Z,101801.06
2022-10-18T07:54:42.198Z,101798.63
2022-10-18T07:57:44.732Z,101794.50
2022-10-18T08:00:48.083Z,101791.50
2022-10-18T08:03:51.862Z,101798.12
2022-10-18T08:06:55.809Z,101789.03
2022-10-18T08:09:58.882Z,101787.16
2022-10-18T08:13:01.523Z,101782.47
2022-10-18T08:16:09.185Z,101789.13
2022-10-18T08:19:11.706Z,101778.97
2022-10-18T08:22:14.532Z,101782.00
2022-10-18T08:25:17.566Z,101775.00
2022-10-18T08:28:20.507Z,101779.19
2022-10-18T08:31:23.147Z,101779.97
2022-10-18T08:34:26.046Z,101781.47
2022-10-18T08:37:28.633Z,101778.53
2022-10-18T08:40:34.744Z,101781.28
2022-10-18T08:43:45.435Z,101775.19
2022-10-18T08:46:55.720Z,101766.94
2022-10-18T08:50:04.038Z,101765.78
2022-10-18T08:53:25.531Z,101763.41
2022-10-18T08:56:28.216Z,101766.88
2022-10-18T08:59:43.887Z,101750.34
2022-10-18T09:02:52.755Z,101749.28
2022-10-18T09:06:23.605Z,101759.84
2022-10-18T09:09:54.430Z,101751.63
2022-10-18T09:13:15.751Z,101744.47
2022-10-18T09:16:28.204Z,101739.59
2022-10-18T09:23:20.406Z,101736.00
2022-10-18T09:26:41.132Z,101733.75
2022-10-18T09:30:13.488Z,101732.34
2022-10-18T09:33:28.591Z,101723.81
2022-10-18T09:36:35.683Z,101719.59
2022-10-18T09:39:39.475Z,101729.75
2022-10-18T09:42:51.250Z,101717.84
2022-10-18T09:45:55.807Z,101729.72
2022-10-18T09:49:01.735Z,101722.56
2022-10-18T09:52:12.428Z,101710.78
2022-10-18T09:55:26.665Z,101700.81
2022-10-18T09:58:40.506Z,101693.03
2022-10-18T10:01:43.228Z,101692.97
2022-10-18T10:04:46.571Z,101690.47
2022-10-18T10:07:49.458Z,101681.25
2022-10-18T10:10:52.411Z,101689.62
2022-10-18T10:17:29.744Z,101687.09
2022-10-18T10:20:50.530Z,101680.25
2022-10-18T10:23:57.072Z,101689.91
2022-10-18T10:27:21.247Z,101678.78
2022-10-18T10:30:35.820Z,101675.62
2022-10-18T10:33:38.840Z,101682.06
2022-10-18T10:36:50.703Z,101660.41
2022-10-18T10:40:18.801Z,101652.59
2022-10-18T10:43:45.104Z,101660.50
2022-10-18T10:46:50.136Z,101660.84
2022-10-18T10:49:56.400Z,101653.97
2022-10-18T10:53:01.399Z,101645.94
2022-10-18T10:56:06.055Z,101640.47
2022-10-18T10:59:20.092Z,101637.25
2022-10-18T11:02:31.312Z,101640.44
2022-10-18T11:05:47.121Z,101627.06
2022-10-18T11:08:52.740Z,101619.94
2022-10-18T11:12:02.610Z,101613.81
2022-10-18T11:15:14.507Z,101599.87
2022-10-18T11:18:24.020Z,101612.56
2022-10-18T11:21:29.979Z,101602.25
2022-10-18T11:24:35.519Z,101592.38
2022-10-18T11:27:47.828Z,101599.16
2022-10-18T11:30:59.591Z,101586.44
2022-10-18T11:34:17.785Z,101578.19
2022-10-18T11:37:38.351Z,101577.09
2022-10-18T11:41:11.438Z,101573.53
2022-10-18T11:44:40.432Z,101558.91
2022-10-18T11:47:55.811Z,101551.78
2022-10-18T11:51:11.631Z,101557.00
2022-10-18T11:58:25.109Z,101544.66
2022-10-18T12:01:31.115Z,101533.59
2022-10-18T12:04:48.971Z,101526.06
2022-10-18T12:08:14.111Z,101518.16
2022-10-18T12:11:54.866Z,101520.09
2022-10-18T12:15:28.817Z,101514.56
2022-10-18T12:18:33.015Z,101507.84
2022-10-18T12:21:36.054Z,101503.47
2022-10-18T12:24:41.020Z,101505.88
2022-10-18T12:27:55.007Z,101512.59
2022-10-18T12:31:41.448Z,101503.06
2022-10-18T12:34:53.855Z,101502.25
2022-10-18T12:38:11.635Z,101494.34
2022-10-18T12:41:21.238Z,101485.66
2022-10-18T12:44:32.093Z,101489.22
2022-10-18T12:47:34.905Z,101484.87
2022-10-18T12:50:43.282Z,101484.47
2022-10-18T12:54:12.524Z,101480.53
2022-10-18T12:57:23.670Z,101469.84
2022-10-18T13:00:32.445Z,101467.44
2022-10-18T13:03:56.222Z,101459.91
2022-10-18T13:06:59.546Z,101451.56
2022-10-18T13:10:07.976Z,101444.84
2022-10-18T13:13:39.054Z,101442.06
2022-10-18T13:16:49.258Z,101434.13
2022-10-18T13:20:27.285Z,101434.13
2022-10-18T13:24:10.828Z,101429.00
2022-10-18T13:31:16.235Z,101427.00
2022-10-18T13:34:23.063Z,101426.22
2022-10-18T13:37:27.181Z,101422.22
2022-10-18T13:40:32.610Z,101411.56
2022-10-18T13:43:59.341Z,101404.81
2022-10-18T13:47:01.949Z,101402.44
2022-10-18T13:50:17.272Z,101399.28
2022-10-18T13:53:39.763Z,101397.28
2022-10-18T13:56:52.569Z,101397.69
2022-10-18T14:00:33.199Z,101391.75
2022-10-18T14:07:04.986Z,101382.63
2022-10-18T14:10:29.752Z,101376.28
2022-10-18T14:13:48.226Z,101378.63
2022-10-18T14:17:21.231Z,101368.34
2022-10-18T14:20:29.940Z,101361.97
2022-10-18T14:23:37.940Z,101362.72
2022-10-18T14:26:40.501Z,101362.34
2022-10-18T14:29:43.597Z,101357.97
2022-10-18T14:32:48.497Z,101352.34
2022-10-18T14:36:07.344Z,101355.50
2022-10-18T14:39:21.109Z,101359.00
2022-10-18T14:42:26.817Z,101347.84
2022-10-18T14:45:29.399Z,101341.50
2022-10-18T14:48:32.269Z,101344.59
2022-10-18T14:51:38.703Z,101334.66
2022-10-18T14:54:42.669Z,101329.06
2022-10-18T14:57:45.833Z,101334.97
2022-10-18T15:00:50.731Z,101329.31
2022-10-18T15:04:01.047Z,101336.38
2022-10-18T15:07:07.199Z,101330.22
2022-10-18T15:10:25.546Z,101319.88
2022-10-18T15:13:31.419Z,101317.75
2022-10-18T15:16:34.637Z,101321.94
2022-10-18T15:19:42.276Z,101316.66
2022-10-18T15:22:46.755Z,101310.94
2022-10-18T15:25:52.868Z,101308.69
2022-10-18T15:29:00.559Z,101304.91
2022-10-18T15:32:22.116Z,101305.06
2022-10-18T15:35:30.625Z,101301.25
2022-10-18T15:38:33.638Z,101309.31
2022-10-18T15:41:46.554Z,101287.34
2022-10-18T15:44:51.280Z,101294.25
2022-10-18T15:48:01.408Z,101288.88
2022-10-18T15:51:07.597Z,101283.88
2022-10-18T15:54:19.111Z,101289.50
2022-10-18T15:57:27.846Z,101292.72
2022-10-18T16:00:36.892Z,101289.72
2022-10-18T16:03:39.936Z,101292.09
2022-10-18T16:06:47.121Z,101290.22
2022-10-18T16:09:56.184Z,101293.09
2022-10-18T16:12:59.501Z,101284.53
2022-10-18T16:16:04.801Z,101283.81
2022-10-18T16:19:16.727Z,101284.00
2022-10-18T16:22:19.643Z,101287.31
2022-10-18T16:25:22.266Z,101287.87
2022-10-18T16:28:28.132Z,101289.94
2022-10-18T16:31:34.192Z,101301.37
2022-10-18T16:34:38.112Z,101305.47
2022-10-18T16:37:40.969Z,101303.66
2022-10-18T16:40:44.029Z,101307.56
2022-10-18T16:43:48.135Z,101310.09
2022-10-18T16:46:53.967Z,101313.81
2022-10-18T16:50:04.091Z,101312.13
2022-10-18T16:53:09.740Z,101321.06
2022-10-18T16:56:18.307Z,101313.28
2022-10-18T16:59:31.724Z,101327.03
2022-10-18T17:02:34.702Z,101320.56
2022-10-18T17:05:37.750Z,101317.25
2022-10-18T17:08:40.344Z,101316.50
2022-10-18T17:11:43.368Z,101311.16
2022-10-18T17:14:46.061Z,101312.53
2022-10-18T17:17:50.054Z,101314.84
2022-10-18T17:20:53.836Z,101308.91
2022-10-18T17:24:03.014Z,101310.97
2022-10-18T17:27:05.617Z,101317.38
2022-10-18T17:30:10.124Z,101317.41
2022-10-18T17:33:14.425Z,101310.31
2022-10-18T17:36:17.752Z,101314.19
2022-10-18T17:39:20.668Z,101304.59
2022-10-18T17:42:23.570Z,101312.69
2022-10-18T17:45:26.783Z,101310.28
2022-10-18T17:48:29.886Z,101298.78
2022-10-18T17:51:32.710Z,101307.53
2022-10-18T17:54:35.631Z,101300.69
2022-10-18T17:57:39.727Z,101305.91
2022-10-18T18:00:47.143Z,101297.50
2022-10-18T18:03:50.986Z,101286.16
2022-10-18T18:06:53.730Z,101295.41
2022-10-18T18:09:56.824Z,101286.59
2022-10-18T18:13:02.400Z,101288.09
2022-10-18T18:16:21.666Z,101281.22
2022-10-18T18:19:24.309Z,101285.31
2022-10-18T18:22:27.167Z,101286.69
2022-10-18T18:25:32.167Z,101300.88
2022-10-18T18:28:36.383Z,101298.72
2022-10-18T18:31:43.434Z,101296.31
2022-10-18T18:34:46.649Z,101297.25
2022-10-18T18:37:52.200Z,101282.19
2022-10-18T18:41:13.526Z,101284.78
2022-10-18T18:44:16.923Z,101286.59
2022-10-18T18:47:21.878Z,101283.44
2022-10-18T18:50:25.192Z,101279.12
2022-10-18T18:53:29.685Z,101272.50
2022-10-18T18:56:33.188Z,101278.84
2022-10-18T18:59:36.516Z,101281.13
2022-10-18T19:02:39.180Z,101271.88
2022-10-18T19:05:42.248Z,101277.53
2022-10-18T19:08:46.545Z,101266.12
2022-10-18T19:11:52.535Z,101262.59
2022-10-18T19:14:55.042Z,101270.97
2022-10-18T19:17:57.875Z,101270.38
2022-10-18T19:21:00.692Z,101268.34
2022-10-18T19:24:04.527Z,101260.37
2022-10-18T19:27:09.782Z,101264.09
2022-10-18T19:30:13.142Z,101254.53
2022-10-18T19:33:35.548Z,101262.72
2022-10-18T19:36:47.278Z,101248.16
2022-10-18T19:39:49.878Z,101251.34
2022-10-18T19:42:52.837Z,101242.22
2022-10-18T19:45:55.376Z,101243.19
2022-10-18T19:48:58.753Z,101233.13
2022-10-18T19:52:01.696Z,101234.94
2022-10-18T19:55:05.027Z,101238.16
2022-10-18T19:58:08.077Z,101241.53
2022-10-18T20:01:12.169Z,101245.22
2022-10-18T20:04:17.238Z,101234.16
2022-10-18T20:07:19.870Z,101236.69
2022-10-18T20:10:24.686Z,101229.69
2022-10-18T20:13:27.387Z,101246.53
2022-10-18T20:16:33.033Z,101231.28
2022-10-18T20:20:28.832Z,101227.63
2022-10-18T20:23:32.636Z,101222.34
2022-10-18T20:26:36.025Z,101233.09
2022-10-18T20:29:39.244Z,101239.50
2022-10-18T20:32:42.826Z,101242.59
2022-10-18T20:35:49.969Z,101234.63
2022-10-18T20:38:55.419Z,101239.59
2022-10-18T20:42:54.669Z,101231.25
2022-10-18T20:45:58.478Z,101230.78
2022-10-18T20:49:02.064Z,101224.97
2022-10-18T20:52:04.722Z,101218.28
2022-10-18T20:55:07.831Z,101232.22
2022-10-18T20:58:11.402Z,101234.97
2022-10-18T21:01:25.659Z,101244.44
2022-10-18T21:04:28.315Z,101241.53
2022-10-18T21:07:31.480Z,101228.09
2022-10-18T21:10:36.843Z,101226.81
2022-10-18T21:13:40.950Z,101219.13
2022-10-18T21:16:44.405Z,101214.47
2022-10-18T21:19:47.271Z,101220.91
2022-10-18T21:22:51.702Z,101217.72
2022-10-18T21:25:54.579Z,101221.88
2022-10-18T21:28:58.960Z,101213.84
2022-10-18T21:32:02.777Z,101206.50
2022-10-18T21:35:06.077Z,101200.56
2022-10-18T21:38:08.919Z,101194.03
2022-10-18T21:41:13.189Z,101189.22
2022-10-18T21:44:16.623Z,101185.53
2022-10-18T21:47:19.198Z,101182.81
2022-10-18T21:50:22.555Z,101179.94
2022-10-18T21:53:25.087Z,101176.25
2022-10-18T21:56:30.563Z,101165.19
2022-10-18T21:59:33.093Z,101169.81
2022-10-18T22:02:36.096Z,101161.38
2022-10-18T22:05:39.403Z,101153.97
2022-10-18T22:09:04.662Z,101141.81
2022-10-18T22:12:10.742Z,101145.19
2022-10-18T22:15:13.535Z,101145.19
2022-10-18T22:18:16.632Z,101154.16
2022-10-18T22:21:20.475Z,101149.50
2022-10-18T22:24:23.479Z,101145.37
2022-10-18T22:27:26.086Z,101164.53
2022-10-18T22:30:29.127Z,101154.78
2022-10-18T22:33:32.065Z,101155.44
2022-10-18T22:36:35.640Z,101158.44
2022-10-18T22:39:38.202Z,101155.06
2022-10-18T22:42:41.045Z,101148.87
2022-10-18T22:45:43.645Z,101153.75
2022-10-18T22:48:47.175Z,101136.06
2022-10-18T22:51:49.719Z,101137.50
2022-10-18T22:54:52.578Z,101138.66
2022-10-18T22:57:56.271Z,101134.78
2022-10-18T23:01:02.277Z,101138.59
2022-10-18T23:04:04.948Z,101142.09
2022-10-18T23:07:07.830Z,101148.00
2022-10-18T23:10:10.440Z,101133.97
2022-10-18T23:13:14.323Z,101142.75
2022-10-18T23:16:17.053Z,101149.59
2022-10-18T23:19:19.889Z,101144.12
2022-10-18T23:22:22.471Z,101141.06
2022-10-18T23:25:25.383Z,101141.69
2022-10-18T23:28:27.947Z,101138.66
2022-10-18T23:31:33.335Z,101139.78
2022-10-18T23:34:35.928Z,101132.47
2022-10-18T23:37:38.783Z,101127.22
2022-10-18T23:40:42.147Z,101131.87
2022-10-18T23:43:46.085Z,101129.44
2022-10-18T23:46:48.602Z,101128.16
2022-10-18T23:49:51.492Z,101133.25
2022-10-18T23:52:54.093Z,101137.81
2022-10-18T23:56:00.988Z,101133.97
2022-10-18T23:59:03.520Z,101132.06
